createdAt,value
2018-04-25T00:00:48.159Z,11.20
2018-04-25T00:03:16.394Z,11.47
2018-04-25T00:05:44.703Z,10.80
2018-04-25T00:08:13.679Z,11.57
2018-04-25T00:10:42.658Z,11.67
2018-04-25T00:13:10.936Z,11.87
2018-04-25T00:15:40.390Z,10.93
2018-04-25T00:18:08.604Z,11.00
2018-04-25T00:20:36.823Z,10.93
2018-04-25T00:23:05.023Z,10.83
2018-04-25T00:25:33.267Z,10.70
2018-04-25T00:28:02.497Z,10.73
2018-04-25T00:30:30.726Z,11.70
2018-04-25T00:32:58.999Z,11.33
2018-04-25T00:35:27.231Z,10.83
2018-04-25T00:37:55.438Z,10.87
2018-04-25T00:40:23.677Z,10.97
2018-04-25T00:42:51.920Z,11.27
2018-04-25T00:45:20.189Z,11.30
2018-04-25T00:47:48.405Z,11.40
2018-04-25T00:50:16.655Z,12.70
2018-04-25T00:52:45.632Z,12.73
2018-04-25T00:55:14.874Z,12.23
2018-04-25T00:57:43.140Z,12.00
2018-04-25T01:00:11.371Z,12.13
2018-04-25T01:02:39.579Z,11.60
2018-04-25T01:05:08.589Z,11.30
2018-04-25T01:07:37.529Z,12.33
2018-04-25T01:10:05.720Z,13.00
2018-04-25T01:12:34.056Z,12.77
2018-04-25T01:15:02.257Z,13.37
2018-04-25T01:17:30.487Z,12.57
2018-04-25T01:19:58.715Z,12.77
2018-04-25T01:22:26.968Z,12.37
2018-04-25T01:24:56.878Z,13.13
2018-04-25T01:27:25.298Z,13.30
2018-04-25T01:29:55.191Z,12.23
2018-04-25T01:32:23.391Z,12.33
2018-04-25T01:34:56.146Z,12.97
2018-04-25T01:37:35.744Z,13.00
2018-04-25T01:40:06.640Z,13.07
2018-04-25T01:46:05.319Z,12.50
2018-04-25T01:52:00.659Z,12.07
2018-04-25T01:54:40.607Z,13.37
2018-04-25T01:57:20.659Z,13.87
2018-04-25T02:00:00.758Z,13.33
2018-04-25T02:02:29.239Z,14.17
2018-04-25T02:04:57.453Z,14.07
2018-04-25T02:07:25.648Z,13.13
2018-04-25T02:09:53.915Z,14.13
2018-04-25T02:12:22.959Z,14.43
2018-04-25T02:14:51.995Z,13.70
2018-04-25T02:17:21.494Z,13.93
2018-04-25T02:19:49.735Z,13.77
2018-04-25T02:22:18.698Z,14.33
2018-04-25T02:24:46.991Z,12.07
2018-04-25T02:27:16.034Z,14.43
2018-04-25T02:29:44.227Z,14.07
2018-04-25T02:32:12.501Z,15.13
2018-04-25T02:34:40.768Z,14.03
2018-04-25T02:37:09.036Z,17.10
2018-04-25T02:39:38.645Z,13.97
2018-04-25T02:42:06.839Z,15.33
2018-04-25T02:44:35.138Z,14.33
2018-04-25T02:47:03.381Z,14.77
2018-04-25T02:49:31.649Z,14.30
2018-04-25T02:51:59.848Z,15.17
2018-04-25T02:54:28.051Z,14.27
2018-04-25T02:56:57.015Z,14.20
2018-04-25T02:59:25.218Z,14.10
2018-04-25T03:01:54.367Z,14.40
2018-04-25T03:04:22.630Z,14.53
2018-04-25T03:06:50.851Z,14.03
2018-04-25T03:09:19.155Z,15.30
2018-04-25T03:11:48.156Z,15.97
2018-04-25T03:14:16.338Z,16.20
2018-04-25T03:16:44.646Z,15.47
2018-04-25T03:19:12.898Z,14.90
2018-04-25T03:21:41.424Z,15.93
2018-04-25T03:24:09.654Z,15.87
2018-04-25T03:26:37.865Z,16.13
2018-04-25T03:29:06.120Z,15.97
2018-04-25T03:31:34.357Z,15.20
2018-04-25T03:34:03.355Z,15.20
2018-04-25T03:36:31.575Z,16.57
2018-04-25T03:38:59.972Z,15.20
2018-04-25T03:41:28.294Z,15.30
2018-04-25T03:43:56.623Z,14.83
2018-04-25T03:46:24.842Z,17.03
2018-04-25T03:48:53.043Z,17.63
2018-04-25T03:51:21.248Z,16.87
2018-04-25T03:53:49.599Z,16.60
2018-04-25T03:56:17.842Z,17.20
2018-04-25T03:58:46.807Z,17.47
2018-04-25T04:01:15.127Z,16.43
2018-04-25T04:03:43.478Z,17.20
2018-04-25T04:06:11.805Z,17.40
2018-04-25T04:08:40.043Z,18.20
2018-04-25T04:11:08.248Z,17.73
2018-04-25T04:13:36.505Z,19.23
2018-04-25T04:16:04.726Z,17.03
2018-04-25T04:18:32.999Z,19.60
2018-04-25T04:21:01.336Z,16.90
2018-04-25T04:23:32.543Z,16.80
2018-04-25T04:26:01.237Z,17.10
2018-04-25T04:28:29.630Z,19.40
2018-04-25T04:30:57.848Z,18.53
2018-04-25T04:33:26.047Z,17.77
2018-04-25T04:35:54.259Z,18.97
2018-04-25T04:38:23.233Z,17.13
2018-04-25T04:40:52.363Z,19.03
2018-04-25T04:43:20.633Z,18.33
2018-04-25T04:45:48.937Z,18.53
2018-04-25T04:48:17.191Z,18.83
2018-04-25T04:50:46.267Z,19.77
2018-04-25T04:53:15.427Z,18.87
2018-04-25T04:55:43.779Z,17.13
2018-04-25T04:58:11.979Z,18.30
2018-04-25T05:00:40.263Z,16.73
2018-04-25T05:03:08.502Z,17.60
2018-04-25T05:05:36.705Z,17.00
2018-04-25T05:08:05.012Z,17.53
2018-04-25T05:10:34.048Z,22.77
2018-04-25T05:13:02.436Z,15.57
2018-04-25T05:15:30.694Z,17.70
2018-04-25T05:17:58.930Z,16.60
2018-04-25T05:20:27.162Z,18.33
2018-04-25T05:22:55.467Z,17.00
2018-04-25T05:25:23.643Z,17.70
2018-04-25T05:27:52.128Z,18.40
2018-04-25T05:30:20.363Z,17.10
2018-04-25T05:32:48.798Z,17.33
2018-04-25T05:35:17.811Z,20.63
2018-04-25T05:37:46.136Z,18.13
2018-04-25T05:40:14.323Z,17.40
2018-04-25T05:42:42.519Z,17.20
2018-04-25T05:45:11.543Z,16.87
2018-04-25T05:47:39.829Z,17.67
2018-04-25T05:50:08.028Z,18.87
2018-04-25T05:52:36.272Z,17.53
2018-04-25T05:55:04.476Z,17.37
2018-04-25T05:57:32.682Z,16.10
2018-04-25T06:00:01.027Z,16.37
2018-04-25T06:02:29.271Z,20.33
2018-04-25T06:04:57.582Z,16.47
2018-04-25T06:07:25.815Z,15.60
2018-04-25T06:09:54.210Z,15.87
2018-04-25T06:12:22.442Z,15.07
2018-04-25T06:14:50.695Z,14.37
2018-04-25T06:17:18.899Z,15.27
2018-04-25T06:19:47.948Z,14.93
2018-04-25T06:22:16.268Z,16.43
2018-04-25T06:24:44.499Z,17.20
2018-04-25T06:27:12.820Z,15.03
2018-04-25T06:29:41.119Z,14.63
2018-04-25T06:32:09.323Z,20.67
2018-04-25T06:34:37.527Z,18.43
2018-04-25T06:37:05.870Z,13.17
2018-04-25T06:39:34.312Z,12.87
2018-04-25T06:42:02.438Z,13.37
2018-04-25T06:44:30.755Z,14.33
2018-04-25T06:46:59.795Z,11.53
2018-04-25T06:49:28.041Z,12.73
2018-04-25T06:51:57.070Z,12.07
2018-04-25T06:54:25.355Z,12.27
2018-04-25T06:56:53.616Z,12.10
2018-04-25T06:59:21.892Z,12.20
2018-04-25T07:01:50.139Z,10.20
2018-04-25T07:04:19.109Z,11.10
2018-04-25T07:06:47.419Z,11.40
2018-04-25T07:09:15.659Z,8.23
2018-04-25T07:11:44.015Z,8.03
2018-04-25T07:14:12.265Z,8.20
2018-04-25T07:16:40.459Z,9.83
2018-04-25T07:19:08.759Z,6.70
2018-04-25T07:21:37.011Z,6.83
2018-04-25T07:24:05.288Z,11.60
2018-04-25T07:26:33.627Z,9.50
2018-04-25T07:29:01.826Z,7.10
2018-04-25T07:31:30.828Z,8.13
2018-04-25T07:33:59.019Z,10.33
2018-04-25T07:36:27.273Z,8.77
2018-04-25T07:38:55.610Z,10.30
2018-04-25T07:41:25.391Z,6.47
2018-04-25T07:43:53.609Z,7.70
2018-04-25T07:46:21.860Z,8.17
2018-04-25T07:48:50.103Z,12.20
2018-04-25T07:51:18.310Z,8.67
2018-04-25T07:53:46.531Z,7.10
2018-04-25T07:56:14.723Z,8.47
2018-04-25T07:58:42.913Z,10.43
2018-04-25T08:01:11.223Z,7.97
2018-04-25T08:03:39.419Z,9.07
2018-04-25T08:06:07.614Z,11.07
2018-04-25T08:08:35.883Z,7.07
2018-04-25T08:11:04.072Z,9.50
2018-04-25T08:13:44.128Z,10.17
2018-04-25T08:16:24.131Z,8.07
2018-04-25T08:19:05.043Z,6.63
2018-04-25T08:21:40.945Z,5.40
2018-04-25T08:24:09.248Z,9.77
2018-04-25T08:26:38.215Z,11.80
2018-04-25T08:29:06.490Z,8.43
2018-04-25T08:31:34.791Z,9.27
2018-04-25T08:34:03.739Z,9.47
2018-04-25T08:36:31.933Z,5.73
2018-04-25T08:39:00.154Z,6.20
2018-04-25T08:41:28.345Z,12.07
2018-04-25T08:43:56.571Z,6.97
2018-04-25T08:46:25.601Z,8.33
2018-04-25T08:48:53.844Z,11.47
2018-04-25T08:51:22.871Z,10.00
2018-04-25T08:53:51.095Z,9.03
2018-04-25T08:56:19.331Z,8.73
2018-04-25T08:58:47.561Z,7.90
2018-04-25T09:01:16.591Z,11.80
2018-04-25T09:03:44.839Z,8.60
2018-04-25T09:06:13.823Z,9.20
2018-04-25T09:08:44.128Z,8.50
2018-04-25T09:11:12.331Z,8.93
2018-04-25T09:13:41.383Z,10.80
2018-04-25T09:16:09.795Z,8.90
2018-04-25T09:18:38.751Z,7.83
2018-04-25T09:21:06.943Z,8.67
2018-04-25T09:23:35.142Z,7.93
2018-04-25T09:26:04.123Z,9.97
2018-04-25T09:28:32.315Z,11.23
2018-04-25T09:31:02.691Z,11.60
2018-04-25T09:33:30.938Z,10.27
2018-04-25T09:35:59.175Z,11.63
2018-04-25T09:38:27.415Z,12.03
2018-04-25T09:40:55.697Z,7.90
2018-04-25T09:43:23.898Z,9.97
2018-04-25T09:45:52.139Z,11.73
2018-04-25T09:48:21.052Z,9.80
2018-04-25T09:50:49.243Z,10.37
2018-04-25T09:55:39.284Z,10.23
2018-04-25T09:58:07.568Z,10.13
2018-04-25T10:00:41.287Z,13.67
2018-04-25T10:03:15.139Z,8.50
2018-04-25T10:05:43.416Z,11.13
2018-04-25T10:08:12.382Z,10.43
2018-04-25T10:10:40.597Z,7.50
2018-04-25T10:13:09.655Z,11.23
2018-04-25T10:15:37.855Z,9.73
2018-04-25T10:18:06.819Z,10.07
2018-04-25T10:20:35.048Z,9.30
2018-04-25T10:23:03.239Z,11.87
2018-04-25T10:25:31.455Z,10.67
2018-04-25T10:27:59.664Z,12.43
2018-04-25T10:30:28.640Z,12.90
2018-04-25T10:32:57.600Z,5.77
2018-04-25T10:35:25.824Z,8.90
2018-04-25T10:37:54.795Z,7.10
2018-04-25T10:40:23.787Z,9.80
2018-04-25T10:42:51.967Z,11.40
2018-04-25T10:45:21.091Z,8.87
2018-04-25T10:47:49.390Z,8.63
2018-04-25T10:50:17.867Z,6.03
2018-04-25T10:52:46.085Z,8.47
2018-04-25T10:55:14.301Z,7.80
2018-04-25T10:57:42.513Z,7.10
2018-04-25T11:00:10.788Z,10.87
2018-04-25T11:02:39.131Z,7.70
2018-04-25T11:05:08.138Z,9.90
2018-04-25T11:07:36.406Z,8.30
2018-04-25T11:10:04.624Z,8.40
2018-04-25T11:12:32.831Z,6.10
2018-04-25T11:15:01.812Z,8.63
2018-04-25T11:17:30.774Z,6.63
2018-04-25T11:20:00.245Z,9.17
2018-04-25T11:22:28.422Z,6.07
2018-04-25T11:24:56.619Z,7.83
2018-04-25T11:27:24.870Z,9.17
2018-04-25T11:29:53.070Z,6.20
2018-04-25T11:32:21.262Z,9.20
2018-04-25T11:34:49.801Z,7.40
2018-04-25T11:37:18.101Z,6.47
2018-04-25T11:39:46.377Z,7.57
2018-04-25T11:42:14.701Z,9.97
2018-04-25T11:44:43.667Z,14.07
2018-04-25T11:47:12.055Z,7.47
2018-04-25T11:49:40.230Z,9.60
2018-04-25T11:52:08.422Z,9.10
2018-04-25T11:54:38.631Z,8.17
2018-04-25T11:57:06.976Z,7.03
2018-04-25T11:59:35.200Z,11.93
2018-04-25T12:02:03.372Z,8.23
2018-04-25T12:04:32.431Z,7.50
2018-04-25T12:07:00.623Z,5.77
2018-04-25T12:09:28.851Z,10.10
2018-04-25T12:11:57.063Z,9.03
2018-04-25T12:14:25.790Z,7.83
2018-04-25T12:16:54.326Z,8.00
2018-04-25T12:19:22.805Z,6.37
2018-04-25T12:21:50.991Z,10.67
2018-04-25T12:24:19.270Z,6.43
2018-04-25T12:26:48.182Z,5.70
2018-04-25T12:29:17.150Z,10.37
2018-04-25T12:31:45.378Z,10.27
2018-04-25T12:34:13.653Z,7.17
2018-04-25T12:36:41.863Z,7.93
2018-04-25T12:39:10.171Z,6.57
2018-04-25T12:41:38.446Z,5.03
2018-04-25T12:44:06.623Z,7.23
2018-04-25T12:46:35.579Z,8.73
2018-04-25T12:49:03.843Z,7.20
2018-04-25T12:51:32.023Z,8.00
2018-04-25T12:54:00.400Z,7.47
2018-04-25T12:56:28.591Z,6.80
2018-04-25T12:58:56.791Z,6.67
2018-04-25T13:01:24.971Z,5.80
2018-04-25T13:03:53.954Z,6.50
2018-04-25T13:06:22.292Z,6.47
2018-04-25T13:08:50.495Z,4.70
2018-04-25T13:11:18.817Z,7.40
2018-04-25T13:13:47.191Z,11.13
2018-04-25T13:16:15.492Z,9.23
2018-04-25T13:18:43.703Z,6.03
2018-04-25T13:21:12.070Z,10.33
2018-04-25T13:23:40.323Z,7.57
2018-04-25T13:26:08.786Z,5.80
2018-04-25T13:28:36.980Z,4.37
2018-04-25T13:31:05.228Z,8.33
2018-04-25T13:33:33.546Z,8.43
2018-04-25T13:36:01.830Z,5.77
2018-04-25T13:38:30.019Z,6.87
2018-04-25T13:40:58.356Z,10.27
2018-04-25T13:43:26.543Z,6.37
2018-04-25T13:45:54.733Z,6.10
2018-04-25T13:48:22.935Z,4.07
2018-04-25T13:50:51.892Z,9.73
2018-04-25T13:53:20.079Z,5.83
2018-04-25T13:55:48.475Z,7.27
2018-04-25T13:58:16.675Z,6.60
2018-04-25T14:00:45.700Z,9.63
2018-04-25T14:03:13.999Z,6.60
2018-04-25T14:05:42.222Z,7.03
2018-04-25T14:08:10.417Z,6.33
2018-04-25T14:10:38.627Z,7.30
2018-04-25T14:13:07.689Z,6.17
2018-04-25T14:15:35.866Z,9.00
2018-04-25T14:18:04.218Z,5.63
2018-04-25T14:20:33.175Z,8.57
2018-04-25T14:23:01.371Z,7.93
2018-04-25T14:25:30.503Z,8.03
2018-04-25T14:27:58.703Z,7.00
2018-04-25T14:30:27.071Z,6.20
2018-04-25T14:32:55.312Z,6.63
2018-04-25T14:35:23.535Z,6.00
2018-04-25T14:37:51.777Z,5.60
2018-04-25T14:40:20.170Z,6.37
2018-04-25T14:42:48.419Z,7.83
2018-04-25T14:45:17.387Z,4.97
2018-04-25T14:47:45.831Z,4.67
2018-04-25T14:50:14.087Z,7.43
2018-04-25T14:52:42.309Z,9.10
2018-04-25T14:55:10.533Z,7.17
2018-04-25T14:57:38.753Z,11.87
2018-04-25T15:00:06.964Z,7.43
2018-04-25T15:02:38.388Z,11.10
2018-04-25T15:05:06.588Z,8.63
2018-04-25T15:07:35.548Z,8.97
2018-04-25T15:10:03.848Z,9.40
2018-04-25T15:12:32.819Z,11.80
2018-04-25T15:15:01.194Z,7.40
2018-04-25T15:17:29.521Z,10.27
2018-04-25T15:19:58.568Z,6.43
2018-04-25T15:22:26.732Z,5.00
2018-04-25T15:24:54.948Z,5.83
2018-04-25T15:27:24.003Z,8.43
2018-04-25T15:29:52.339Z,5.67
2018-04-25T15:32:20.614Z,6.60
2018-04-25T15:34:48.795Z,6.17
2018-04-25T15:37:16.994Z,4.63
2018-04-25T15:39:45.436Z,5.70
2018-04-25T15:42:13.852Z,6.57
2018-04-25T15:44:42.049Z,4.60
2018-04-25T15:47:10.308Z,4.57
2018-04-25T15:49:38.555Z,4.77
2018-04-25T15:52:06.831Z,3.97
2018-04-25T15:54:35.193Z,4.30
2018-04-25T15:57:04.143Z,4.30
2018-04-25T15:59:32.352Z,5.53
2018-04-25T16:02:01.392Z,4.50
2018-04-25T16:04:30.555Z,4.37
2018-04-25T16:06:58.776Z,4.97
2018-04-25T16:09:27.163Z,4.17
2018-04-25T16:11:55.362Z,4.47
2018-04-25T16:14:23.609Z,6.43
2018-04-25T16:16:52.049Z,4.00
2018-04-25T16:19:20.331Z,4.47
2018-04-25T16:21:48.553Z,8.70
2018-04-25T16:24:16.815Z,5.87
2018-04-25T16:26:44.995Z,4.87
2018-04-25T16:29:13.179Z,6.77
2018-04-25T16:31:41.449Z,4.73
2018-04-25T16:34:09.645Z,4.87
2018-04-25T16:36:38.665Z,5.20
2018-04-25T16:39:06.867Z,5.47
2018-04-25T16:41:35.055Z,7.63
2018-04-25T16:44:03.288Z,6.07
2018-04-25T16:46:31.520Z,5.67
2018-04-25T16:48:59.756Z,9.30
2018-04-25T16:51:27.958Z,9.57
2018-04-25T16:53:56.139Z,5.03
2018-04-25T16:56:25.121Z,4.90
2018-04-25T16:58:53.406Z,8.37
2018-04-25T17:01:21.620Z,5.00
2018-04-25T17:03:50.598Z,5.00
2018-04-25T17:06:18.836Z,6.73
2018-04-25T17:08:47.079Z,4.90
2018-04-25T17:11:15.367Z,5.77
2018-04-25T17:13:43.632Z,6.33
2018-04-25T17:16:11.822Z,5.90
2018-04-25T17:18:40.521Z,6.20
2018-04-25T17:21:08.703Z,6.77
2018-04-25T17:23:36.891Z,5.47
2018-04-25T17:26:05.246Z,6.50
2018-04-25T17:28:33.449Z,5.30
2018-04-25T17:31:01.635Z,5.40
2018-04-25T17:33:29.854Z,6.30
2018-04-25T17:35:58.047Z,6.83
2018-04-25T17:38:26.271Z,6.90
2018-04-25T17:40:55.291Z,5.97
2018-04-25T17:43:23.487Z,5.63
2018-04-25T17:45:51.736Z,5.37
2018-04-25T17:48:20.031Z,5.70
2018-04-25T17:50:48.219Z,5.47
2018-04-25T17:53:16.443Z,5.50
2018-04-25T17:55:45.638Z,5.67
2018-04-25T17:58:14.595Z,5.50
2018-04-25T18:00:42.792Z,5.73
2018-04-25T18:03:11.249Z,6.10
2018-04-25T18:05:40.136Z,5.53
2018-04-25T18:08:08.351Z,5.40
2018-04-25T18:10:37.328Z,6.20
2018-04-25T18:13:05.544Z,7.00
2018-04-25T18:15:33.738Z,6.13
2018-04-25T18:18:02.088Z,5.80
2018-04-25T18:20:30.345Z,5.43
2018-04-25T18:22:58.533Z,5.80
2018-04-25T18:25:27.562Z,6.23
2018-04-25T18:27:55.792Z,6.20
2018-04-25T18:30:23.989Z,6.10
2018-04-25T18:35:33.687Z,6.30
2018-04-25T18:38:01.882Z,5.70
2018-04-25T18:40:30.072Z,6.63
2018-04-25T18:42:58.300Z,6.20
2018-04-25T18:45:26.495Z,6.27
2018-04-25T18:47:54.702Z,6.50
2018-04-25T18:50:23.087Z,6.30
2018-04-25T18:52:51.683Z,6.50
2018-04-25T18:55:20.727Z,6.80
2018-04-25T18:57:49.080Z,6.20
2018-04-25T19:00:17.258Z,6.43
2018-04-25T19:02:45.538Z,6.03
2018-04-25T19:05:13.763Z,6.30
2018-04-25T19:07:41.959Z,6.47
2018-04-25T19:10:10.951Z,6.83
2018-04-25T19:12:39.952Z,7.03
2018-04-25T19:15:08.397Z,6.27
2018-04-25T19:17:37.368Z,6.40
2018-04-25T19:20:08.201Z,8.70
2018-04-25T19:22:36.957Z,10.43
2018-04-25T19:25:05.187Z,7.23
2018-04-25T19:27:33.460Z,6.30
2018-04-25T19:30:03.212Z,6.23
2018-04-25T19:32:32.330Z,6.00
2018-04-25T19:35:00.564Z,5.90
2018-04-25T19:37:29.541Z,6.33
2018-04-25T19:39:58.255Z,6.00
2018-04-25T19:42:27.347Z,6.07
2018-04-25T19:44:56.311Z,5.93
2018-04-25T19:47:24.526Z,6.37
2018-04-25T19:49:53.020Z,6.30
2018-04-25T19:52:21.251Z,6.60
2018-04-25T19:54:50.295Z,5.80
2018-04-25T19:57:18.591Z,6.13
2018-04-25T19:59:46.917Z,5.43
2018-04-25T20:02:15.995Z,5.90
2018-04-25T20:04:46.667Z,6.33
2018-04-25T20:07:14.872Z,6.00
2018-04-25T20:09:43.082Z,5.83
2018-04-25T20:12:11.423Z,5.80
2018-04-25T20:14:39.619Z,5.67
2018-04-25T20:17:08.590Z,5.73
2018-04-25T20:19:36.807Z,5.90
2018-04-25T20:22:05.773Z,5.80
2018-04-25T20:24:34.058Z,5.70
2018-04-25T20:27:03.799Z,5.77
2018-04-25T20:29:31.989Z,5.63
2018-04-25T20:32:00.188Z,6.33
2018-04-25T20:34:28.406Z,5.77
2018-04-25T20:36:56.595Z,5.93
2018-04-25T20:39:26.586Z,6.00
2018-04-25T20:41:54.956Z,6.30
2018-04-25T20:44:23.199Z,6.20
2018-04-25T20:46:51.455Z,6.40
2018-04-25T20:49:19.935Z,6.63
2018-04-25T20:51:48.347Z,7.40
2018-04-25T20:54:17.782Z,6.57
2018-04-25T20:56:45.987Z,6.77
2018-04-25T20:59:14.991Z,6.63
2018-04-25T21:01:43.926Z,7.37
2018-04-25T21:04:12.224Z,7.47
2018-04-25T21:06:40.491Z,7.20
2018-04-25T21:09:08.804Z,7.00
2018-04-25T21:11:37.050Z,7.10
2018-04-25T21:14:05.221Z,7.03
2018-04-25T21:16:33.412Z,6.70
2018-04-25T21:19:01.792Z,7.37
2018-04-25T21:21:30.031Z,7.87
2018-04-25T21:23:58.263Z,8.47
2018-04-25T21:26:28.027Z,7.70
2018-04-25T21:28:56.214Z,7.93
2018-04-25T21:31:24.477Z,7.80
2018-04-25T21:33:52.726Z,7.57
2018-04-25T21:36:21.058Z,8.67
2018-04-25T21:38:49.254Z,8.40
2018-04-25T21:41:17.515Z,8.00
2018-04-25T21:43:45.979Z,8.23
2018-04-25T21:46:14.193Z,8.57
2018-04-25T21:48:43.219Z,7.70
2018-04-25T21:51:11.567Z,7.70
2018-04-25T21:53:39.799Z,8.20
2018-04-25T21:56:08.312Z,8.00
2018-04-25T21:58:36.504Z,8.30
2018-04-25T22:01:05.475Z,8.17
2018-04-25T22:03:33.747Z,7.80
2018-04-25T22:06:01.939Z,8.10
2018-04-25T22:08:31.092Z,8.47
2018-04-25T22:10:59.373Z,7.60
2018-04-25T22:13:28.436Z,7.57
2018-04-25T22:15:56.628Z,7.70
2018-04-25T22:18:24.931Z,8.20
2018-04-25T22:20:53.142Z,8.07
2018-04-25T22:23:22.203Z,7.40
2018-04-25T22:25:50.415Z,7.10
2018-04-25T22:28:19.835Z,8.27
2018-04-25T22:30:48.028Z,7.80
2018-04-25T22:33:16.243Z,8.30
2018-04-25T22:35:44.440Z,7.53
2018-04-25T22:38:13.675Z,7.67
2018-04-25T22:40:42.156Z,8.10
2018-04-25T22:43:10.487Z,8.13
2018-04-25T22:45:39.527Z,8.10
2018-04-25T22:48:07.925Z,8.17
2018-04-25T22:50:36.117Z,7.97
2018-04-25T22:53:04.368Z,8.37
2018-04-25T22:55:32.688Z,8.30
2018-04-25T22:58:00.892Z,8.33
2018-04-25T23:00:29.163Z,8.73
2018-04-25T23:02:58.266Z,7.90
2018-04-25T23:05:26.474Z,7.67
2018-04-25T23:07:55.419Z,7.60
2018-04-25T23:10:23.736Z,8.27
2018-04-25T23:12:52.101Z,7.60
2018-04-25T23:15:21.136Z,7.40
2018-04-25T23:17:49.334Z,7.53
2018-04-25T23:20:17.651Z,7.47
2018-04-25T23:22:45.840Z,7.67
2018-04-25T23:25:14.074Z,7.53
2018-04-25T23:27:43.085Z,6.93
2018-04-25T23:30:11.347Z,7.20
2018-04-25T23:32:40.411Z,7.73
2018-04-25T23:35:08.616Z,12.07
2018-04-25T23:37:37.627Z,7.93
2018-04-25T23:40:05.932Z,7.30
2018-04-25T23:42:34.227Z,7.33
2018-04-25T23:45:02.625Z,7.77
2018-04-25T23:47:32.351Z,7.80
2018-04-25T23:50:01.375Z,7.43
2018-04-25T23:52:30.317Z,7.20
2018-04-25T23:54:58.558Z,7.67
2018-04-25T23:57:26.812Z,7.67
2018-04-25T23:59:55.012Z,7.67
